createdAt,value
2022-11-18T00:01:05.812Z,2.90
2022-11-18T00:03:33.328Z,2.90
2022-11-18T00:06:00.877Z,2.90
2022-11-18T00:08:28.419Z,2.80
2022-11-18T00:10:56.013Z,2.90
2022-11-18T00:13:42.294Z,2.70
2022-11-18T00:16:10.990Z,2.80
2022-11-18T00:18:39.039Z,2.90
2022-11-18T00:21:07.805Z,3.00
2022-11-18T00:23:35.719Z,2.80
2022-11-18T00:26:03.777Z,2.80
2022-11-18T00:28:33.035Z,2.80
2022-11-18T00:31:04.282Z,2.90
2022-11-18T00:33:32.166Z,2.70
2022-11-18T00:35:59.998Z,2.80
2022-11-18T00:38:27.683Z,2.80
2022-11-18T00:41:01.899Z,2.70
2022-11-18T00:43:28.497Z,2.70
2022-11-18T00:45:57.584Z,2.80
2022-11-18T00:48:25.151Z,2.70
2022-11-18T00:50:53.426Z,2.70
2022-11-18T00:53:21.649Z,2.80
2022-11-18T00:55:49.178Z,2.80
2022-11-18T00:58:16.705Z,2.70
2022-11-18T01:00:45.130Z,2.70
2022-11-18T01:03:14.023Z,2.60
2022-11-18T01:05:41.567Z,2.60
2022-11-18T01:08:10.122Z,2.70
2022-11-18T01:10:38.171Z,2.70
2022-11-18T01:13:20.207Z,2.70
2022-11-18T01:15:48.733Z,2.60
2022-11-18T01:18:17.897Z,2.60
2022-11-18T01:20:45.523Z,2.70
2022-11-18T01:23:13.256Z,2.60
2022-11-18T01:25:41.526Z,2.90
2022-11-18T01:28:09.093Z,2.50
2022-11-18T01:30:37.132Z,2.60
2022-11-18T01:33:05.522Z,2.50
2022-11-18T01:35:36.688Z,2.30
2022-11-18T01:38:04.490Z,2.50
2022-11-18T01:40:32.522Z,2.80
2022-11-18T01:43:00.300Z,2.50
2022-11-18T01:45:30.473Z,2.40
2022-11-18T01:48:01.957Z,2.40
2022-11-18T01:50:29.786Z,2.50
2022-11-18T01:53:00.713Z,2.50
2022-11-18T01:55:29.998Z,2.60
2022-11-18T01:58:01.432Z,2.50
2022-11-18T02:00:28.999Z,2.40
2022-11-18T02:02:57.726Z,2.40
2022-11-18T02:05:25.950Z,2.40
2022-11-18T02:07:53.504Z,2.40
2022-11-18T02:10:24.996Z,2.50
2022-11-18T02:12:53.348Z,2.50
2022-11-18T02:18:06.775Z,2.40
2022-11-18T02:20:35.874Z,2.50
2022-11-18T02:23:25.263Z,2.40
2022-11-18T02:26:00.976Z,2.40
2022-11-18T02:28:36.541Z,2.40
2022-11-18T02:31:08.265Z,2.40
2022-11-18T02:33:39.475Z,2.40
2022-11-18T02:36:09.494Z,2.30
2022-11-18T02:38:40.683Z,2.30
2022-11-18T02:41:09.818Z,2.40
2022-11-18T02:43:40.654Z,2.50
2022-11-18T02:46:11.764Z,2.60
2022-11-18T02:48:44.905Z,2.50
2022-11-18T02:51:13.190Z,2.70
2022-11-18T02:53:41.611Z,2.30
2022-11-18T02:56:10.165Z,2.60
2022-11-18T02:58:37.884Z,2.40
2022-11-18T03:01:05.638Z,2.50
2022-11-18T03:03:35.627Z,2.40
2022-11-18T03:06:06.919Z,2.40
2022-11-18T03:08:37.948Z,2.40
2022-11-18T03:11:09.658Z,2.40
2022-11-18T03:13:42.207Z,2.40
2022-11-18T03:16:12.389Z,2.30
2022-11-18T03:18:43.829Z,2.30
2022-11-18T03:21:13.865Z,2.30
2022-11-18T03:23:43.847Z,2.20
2022-11-18T03:26:13.547Z,2.30
2022-11-18T03:28:43.826Z,2.70
2022-11-18T03:31:25.763Z,2.20
2022-11-18T03:33:59.982Z,2.20
2022-11-18T03:36:33.856Z,2.20
2022-11-18T03:39:02.546Z,2.30
2022-11-18T03:41:33.308Z,2.10
2022-11-18T03:44:06.747Z,2.30
2022-11-18T03:46:38.153Z,2.20
2022-11-18T03:49:09.058Z,2.30
2022-11-18T03:51:38.917Z,2.40
2022-11-18T03:54:12.317Z,2.30
2022-11-18T03:56:43.758Z,2.20
2022-11-18T03:59:26.271Z,2.10
2022-11-18T04:02:01.109Z,2.10
2022-11-18T04:04:42.455Z,2.30
2022-11-18T04:07:12.878Z,2.20
2022-11-18T04:09:44.151Z,2.20
2022-11-18T04:12:14.291Z,2.10
2022-11-18T04:14:43.590Z,2.20
2022-11-18T04:17:12.442Z,2.30
2022-11-18T04:19:41.932Z,2.00
2022-11-18T04:22:11.922Z,2.30
2022-11-18T04:24:49.052Z,2.40
2022-11-18T04:27:19.831Z,2.30
2022-11-18T04:29:51.707Z,2.00
2022-11-18T04:32:19.536Z,2.20
2022-11-18T04:34:48.839Z,2.10
2022-11-18T04:37:51.743Z,2.00
2022-11-18T04:40:44.696Z,2.10
2022-11-18T04:43:12.561Z,1.80
2022-11-18T04:45:40.559Z,2.10
2022-11-18T04:48:08.453Z,2.00
2022-11-18T04:50:37.632Z,2.10
2022-11-18T04:53:05.536Z,1.90
2022-11-18T04:55:35.613Z,2.30
2022-11-18T05:00:45.573Z,2.20
2022-11-18T05:03:13.441Z,1.90
2022-11-18T05:05:42.797Z,2.10
2022-11-18T05:08:10.593Z,2.30
2022-11-18T05:10:51.745Z,2.20
2022-11-18T05:13:39.085Z,2.20
2022-11-18T05:16:07.267Z,2.10
2022-11-18T05:18:35.233Z,2.10
2022-11-18T05:21:13.372Z,2.10
2022-11-18T05:23:41.274Z,2.20
2022-11-18T05:26:10.057Z,2.10
2022-11-18T05:28:38.375Z,2.00
2022-11-18T05:31:08.529Z,2.10
2022-11-18T05:33:36.806Z,2.40
2022-11-18T05:36:05.150Z,2.20
2022-11-18T05:38:34.763Z,2.40
2022-11-18T05:41:05.674Z,2.20
2022-11-18T05:43:32.638Z,1.70
2022-11-18T05:46:00.789Z,1.90
2022-11-18T05:48:28.685Z,2.00
2022-11-18T05:50:56.593Z,2.20
2022-11-18T05:53:25.808Z,1.90
2022-11-18T05:56:09.400Z,2.00
2022-11-18T05:58:48.986Z,2.00
2022-11-18T06:01:55.950Z,2.30
2022-11-18T06:04:53.673Z,2.20
2022-11-18T06:07:23.947Z,2.20
2022-11-18T06:10:11.686Z,2.50
2022-11-18T06:19:22.751Z,2.10
2022-11-18T06:21:50.600Z,2.20
2022-11-18T06:24:18.586Z,2.00
2022-11-18T06:26:47.001Z,2.00
2022-11-18T06:29:16.450Z,2.00
2022-11-18T06:31:45.657Z,1.90
2022-11-18T06:34:13.322Z,2.00
2022-11-18T06:36:40.958Z,2.10
2022-11-18T06:39:08.829Z,2.00
2022-11-18T06:41:36.565Z,2.10
2022-11-18T06:44:03.197Z,2.20
2022-11-18T06:46:48.481Z,2.00
2022-11-18T06:49:17.742Z,1.90
2022-11-18T06:51:45.522Z,1.90
2022-11-18T06:54:13.412Z,2.00
2022-11-18T06:56:41.011Z,2.00
2022-11-18T06:59:08.627Z,1.80
2022-11-18T07:01:37.420Z,1.90
2022-11-18T07:04:05.467Z,2.10
2022-11-18T07:06:35.352Z,2.00
2022-11-18T07:09:04.102Z,2.00
2022-11-18T07:11:31.787Z,2.00
2022-11-18T07:13:59.350Z,2.00
2022-11-18T07:16:27.575Z,2.00
2022-11-18T07:18:55.740Z,2.10
2022-11-18T07:21:24.076Z,1.90
2022-11-18T07:23:53.462Z,2.10
2022-11-18T07:26:21.334Z,1.90
2022-11-18T07:28:49.241Z,2.00
2022-11-18T07:31:17.991Z,2.00
2022-11-18T07:33:46.307Z,1.70
2022-11-18T07:36:14.995Z,1.80
2022-11-18T07:38:42.932Z,1.90
2022-11-18T07:41:12.984Z,1.90
2022-11-18T07:43:40.797Z,1.70
2022-11-18T07:46:11.896Z,1.70
2022-11-18T07:48:39.447Z,1.80
2022-11-18T07:51:07.251Z,1.80
2022-11-18T07:53:35.551Z,2.00
2022-11-18T07:56:03.777Z,2.00
2022-11-18T07:58:33.087Z,2.10
2022-11-18T08:01:00.730Z,2.10
2022-11-18T08:03:29.065Z,2.10
2022-11-18T08:05:59.442Z,2.20
2022-11-18T08:08:27.057Z,2.30
2022-11-18T08:10:56.168Z,2.20
2022-11-18T08:13:23.726Z,2.20
2022-11-18T08:15:52.947Z,2.30
2022-11-18T08:18:20.693Z,2.10
2022-11-18T08:20:48.698Z,2.10
2022-11-18T08:23:17.103Z,2.20
2022-11-18T08:25:45.723Z,2.30
2022-11-18T08:28:14.189Z,2.20
2022-11-18T08:30:42.370Z,2.20
2022-11-18T08:33:11.245Z,2.10
2022-11-18T08:35:38.874Z,2.00
2022-11-18T08:38:06.410Z,2.00
2022-11-18T08:40:34.823Z,2.00
2022-11-18T08:43:02.540Z,2.10
2022-11-18T08:45:30.357Z,2.20
2022-11-18T08:47:57.977Z,2.20
2022-11-18T08:50:26.931Z,2.20
2022-11-18T08:52:54.523Z,2.20
2022-11-18T08:55:22.214Z,2.50
2022-11-18T08:57:49.798Z,2.20
2022-11-18T09:00:17.767Z,2.20
2022-11-18T09:02:45.382Z,2.30
2022-11-18T09:05:12.968Z,2.10
2022-11-18T09:07:42.066Z,2.20
2022-11-18T09:10:10.080Z,2.10
2022-11-18T09:12:37.657Z,2.30
2022-11-18T09:17:53.119Z,2.20
2022-11-18T09:20:20.905Z,2.40
2022-11-18T09:22:49.801Z,2.40
2022-11-18T09:25:17.410Z,2.50
2022-11-18T09:27:44.968Z,2.50
2022-11-18T09:30:12.748Z,2.40
2022-11-18T09:32:40.337Z,2.60
2022-11-18T09:35:07.957Z,2.40
2022-11-18T09:37:35.551Z,2.50
2022-11-18T09:40:04.583Z,2.50
2022-11-18T09:42:39.414Z,2.70
2022-11-18T09:45:17.152Z,2.60
2022-11-18T09:47:49.222Z,2.70
2022-11-18T09:50:47.836Z,2.80
2022-11-18T09:53:09.831Z,2.90
2022-11-18T09:55:40.936Z,2.80
2022-11-18T09:58:08.837Z,2.80
2022-11-18T10:00:36.411Z,2.70
2022-11-18T10:03:06.322Z,3.00
2022-11-18T10:05:39.426Z,2.80
2022-11-18T10:08:14.775Z,2.90
2022-11-18T10:10:47.073Z,2.90
2022-11-18T10:13:19.506Z,2.90
2022-11-18T10:15:51.916Z,3.10
2022-11-18T10:18:52.878Z,3.20
2022-11-18T10:21:16.120Z,3.00
2022-11-18T10:23:46.989Z,3.30
2022-11-18T10:26:15.880Z,3.00
2022-11-18T10:28:43.404Z,3.10
2022-11-18T10:31:12.399Z,2.80
2022-11-18T10:33:40.230Z,3.10
2022-11-18T10:36:13.375Z,3.10
2022-11-18T10:38:45.490Z,3.00
2022-11-18T10:41:18.571Z,3.00
2022-11-18T10:43:48.623Z,3.20
2022-11-18T10:46:17.936Z,3.10
2022-11-18T10:48:45.892Z,3.10
2022-11-18T10:51:24.014Z,3.00
2022-11-18T10:53:51.876Z,3.00
2022-11-18T10:56:20.992Z,2.90
2022-11-18T10:58:49.924Z,2.90
2022-11-18T11:01:21.317Z,3.20
2022-11-18T11:03:57.800Z,2.80
2022-11-18T11:06:32.286Z,2.90
2022-11-18T11:09:04.508Z,3.00
2022-11-18T11:11:34.608Z,2.80
2022-11-18T11:14:14.452Z,2.90
2022-11-18T11:16:44.838Z,2.90
2022-11-18T11:19:13.138Z,2.90
2022-11-18T11:21:40.831Z,2.80
2022-11-18T11:24:12.401Z,2.80
2022-11-18T11:29:39.022Z,2.90
2022-11-18T11:32:11.938Z,3.00
2022-11-18T11:34:43.733Z,2.90
2022-11-18T11:37:15.380Z,3.00
2022-11-18T11:39:50.924Z,3.00
2022-11-18T11:42:28.460Z,2.90
2022-11-18T11:45:02.534Z,2.80
2022-11-18T11:47:50.420Z,3.00
2022-11-18T11:50:20.303Z,3.20
2022-11-18T11:52:51.124Z,3.40
2022-11-18T11:55:20.736Z,3.20
2022-11-18T11:57:58.411Z,3.00
2022-11-18T12:00:25.989Z,3.10
2022-11-18T12:03:01.447Z,3.20
2022-11-18T12:05:31.121Z,3.10
2022-11-18T12:08:00.271Z,3.20
2022-11-18T12:10:39.051Z,3.10
2022-11-18T12:13:18.399Z,3.20
2022-11-18T12:15:49.531Z,3.20
2022-11-18T12:18:20.963Z,3.10
2022-11-18T12:20:49.456Z,3.10
2022-11-18T12:23:20.833Z,3.30
2022-11-18T12:25:52.850Z,3.30
2022-11-18T12:28:25.556Z,3.30
2022-11-18T12:31:08.041Z,3.30
2022-11-18T12:33:42.799Z,3.20
2022-11-18T12:36:10.801Z,3.10
2022-11-18T12:38:38.531Z,3.20
2022-11-18T12:41:43.569Z,3.10
2022-11-18T12:44:12.788Z,3.00
2022-11-18T12:46:54.156Z,3.50
2022-11-18T12:49:40.414Z,3.20
2022-11-18T12:52:28.914Z,2.90
2022-11-18T12:54:59.512Z,3.00
2022-11-18T12:57:29.050Z,3.00
2022-11-18T12:59:56.645Z,2.80
2022-11-18T13:02:25.080Z,2.80
2022-11-18T13:05:06.324Z,2.80
2022-11-18T13:07:52.438Z,2.90
2022-11-18T13:10:24.390Z,2.80
2022-11-18T13:12:52.525Z,2.80
2022-11-18T13:15:38.006Z,2.90
2022-11-18T13:18:12.320Z,2.80
2022-11-18T13:20:41.059Z,2.70
2022-11-18T13:23:42.537Z,2.70
2022-11-18T13:26:15.719Z,2.70
2022-11-18T13:28:46.918Z,2.90
2022-11-18T13:31:16.909Z,2.60
2022-11-18T13:33:44.569Z,2.60
2022-11-18T13:36:18.959Z,2.60
2022-11-18T13:38:55.692Z,2.60
2022-11-18T13:41:32.436Z,2.60
2022-11-18T13:44:13.405Z,2.40
2022-11-18T13:46:41.555Z,2.40
2022-11-18T13:49:14.880Z,2.40
2022-11-18T13:51:42.432Z,2.40
2022-11-18T13:54:12.117Z,2.30
2022-11-18T13:56:41.301Z,2.40
2022-11-18T13:59:18.156Z,2.50
2022-11-18T14:01:46.835Z,2.30
2022-11-18T14:04:19.115Z,2.30
2022-11-18T14:06:46.685Z,2.40
2022-11-18T14:09:20.265Z,2.40
2022-11-18T14:11:59.971Z,2.30
2022-11-18T14:14:32.417Z,2.30
2022-11-18T14:17:15.875Z,2.30
2022-11-18T14:19:43.895Z,2.30
2022-11-18T14:22:13.644Z,2.30
2022-11-18T14:24:41.951Z,2.30
2022-11-18T14:27:28.223Z,2.20
2022-11-18T14:29:57.165Z,2.20
2022-11-18T14:32:24.769Z,2.20
2022-11-18T14:34:58.288Z,2.10
2022-11-18T14:37:25.952Z,2.10
2022-11-18T14:39:55.716Z,2.10
2022-11-18T14:42:23.651Z,2.00
2022-11-18T14:44:51.354Z,2.00
2022-11-18T14:47:23.254Z,2.00
2022-11-18T14:49:50.843Z,1.90
2022-11-18T14:52:18.446Z,1.90
2022-11-18T14:54:46.015Z,2.10
2022-11-18T14:57:15.447Z,1.80
2022-11-18T14:59:43.126Z,1.80
2022-11-18T15:02:14.459Z,1.80
2022-11-18T15:04:43.562Z,1.70
2022-11-18T15:07:16.039Z,1.70
2022-11-18T15:09:46.349Z,1.60
2022-11-18T15:12:13.931Z,1.50
2022-11-18T15:14:41.460Z,1.50
2022-11-18T15:17:13.143Z,1.50
2022-11-18T15:19:41.654Z,1.50
2022-11-18T15:22:10.747Z,1.50
2022-11-18T15:24:38.438Z,1.50
2022-11-18T15:27:06.008Z,1.50
2022-11-18T15:29:33.792Z,1.40
2022-11-18T15:32:05.045Z,1.40
2022-11-18T15:34:32.589Z,1.40
2022-11-18T15:37:00.414Z,1.60
2022-11-18T15:39:29.299Z,1.30
2022-11-18T15:41:56.858Z,1.20
2022-11-18T15:44:24.820Z,1.10
2022-11-18T15:46:52.380Z,1.10
2022-11-18T15:49:20.086Z,1.10
2022-11-18T15:51:47.712Z,1.10
2022-11-18T15:54:15.338Z,1.00
2022-11-18T15:56:44.303Z,1.10
2022-11-18T15:59:12.440Z,1.10
2022-11-18T16:01:41.216Z,1.30
2022-11-18T16:04:11.409Z,1.00
2022-11-18T16:06:39.182Z,1.00
2022-11-18T16:09:07.639Z,1.00
2022-11-18T16:11:52.968Z,1.00
2022-11-18T16:14:23.264Z,1.00
2022-11-18T16:16:51.843Z,0.90
2022-11-18T16:19:19.971Z,0.90
2022-11-18T16:21:48.661Z,0.90
2022-11-18T16:24:17.862Z,0.90
2022-11-18T16:26:45.809Z,1.00
2022-11-18T16:29:15.800Z,1.10
2022-11-18T16:31:46.855Z,1.10
2022-11-18T16:34:15.848Z,1.10
2022-11-18T16:36:44.193Z,1.10
2022-11-18T16:39:12.574Z,1.10
2022-11-18T16:41:40.734Z,1.10
2022-11-18T16:44:08.985Z,1.10
2022-11-18T16:46:37.188Z,1.10
2022-11-18T16:49:06.925Z,1.10
2022-11-18T16:51:35.606Z,1.10
2022-11-18T16:54:04.280Z,1.00
2022-11-18T16:56:32.790Z,1.10
2022-11-18T16:59:00.819Z,1.00
2022-11-18T17:01:29.863Z,0.90
2022-11-18T17:03:58.245Z,1.10
2022-11-18T17:06:28.343Z,0.90
2022-11-18T17:08:55.959Z,1.00
2022-11-18T17:11:23.549Z,1.00
2022-11-18T17:13:56.415Z,1.00
2022-11-18T17:16:25.217Z,1.00
2022-11-18T17:18:54.797Z,0.90
2022-11-18T17:21:22.466Z,1.00
2022-11-18T17:23:51.508Z,0.90
2022-11-18T17:26:20.169Z,1.00
2022-11-18T17:28:47.878Z,0.90
2022-11-18T17:31:15.999Z,0.90
2022-11-18T17:33:43.716Z,0.90
2022-11-18T17:36:12.396Z,0.90
2022-11-18T17:38:40.526Z,0.90
2022-11-18T17:41:10.092Z,0.90
2022-11-18T17:43:37.625Z,1.00
2022-11-18T17:46:05.206Z,0.90
2022-11-18T17:48:32.764Z,0.90
2022-11-18T17:51:04.352Z,0.90
2022-11-18T17:53:32.524Z,1.00
2022-11-18T17:56:03.827Z,1.00
2022-11-18T17:58:33.154Z,0.90
2022-11-18T18:01:07.425Z,0.80
2022-11-18T18:03:36.071Z,0.90
2022-11-18T18:06:04.088Z,0.80
2022-11-18T18:08:32.108Z,0.80
2022-11-18T18:11:01.310Z,0.70
2022-11-18T18:13:46.632Z,0.70
2022-11-18T18:16:16.242Z,0.80
2022-11-18T18:18:43.829Z,0.80
2022-11-18T18:21:12.950Z,0.70
2022-11-18T18:23:40.946Z,0.70
2022-11-18T18:26:09.289Z,0.60
2022-11-18T18:28:37.314Z,0.60
2022-11-18T18:31:05.488Z,0.60
2022-11-18T18:33:36.227Z,0.60
2022-11-18T18:36:05.079Z,0.60
2022-11-18T18:38:33.078Z,0.70
2022-11-18T18:41:01.896Z,0.60
2022-11-18T18:43:29.653Z,0.60
2022-11-18T18:46:17.317Z,0.60
2022-11-18T18:48:46.293Z,0.60
2022-11-18T18:51:13.963Z,0.60
2022-11-18T18:53:41.529Z,0.50
2022-11-18T18:56:09.483Z,0.50
2022-11-18T18:58:37.424Z,0.50
2022-11-18T19:01:08.881Z,0.40
2022-11-18T19:03:36.498Z,0.40
2022-11-18T19:06:48.809Z,0.40
2022-11-18T19:09:02.660Z,0.30
2022-11-18T19:11:48.317Z,0.40
2022-11-18T19:14:16.905Z,0.40
2022-11-18T19:16:44.730Z,0.40
2022-11-18T19:19:13.695Z,0.40
2022-11-18T19:21:42.628Z,0.20
2022-11-18T19:24:28.372Z,0.20
2022-11-18T19:26:57.813Z,0.20
2022-11-18T19:29:25.891Z,0.10
2022-11-18T19:31:53.527Z,0.10
2022-11-18T19:34:21.280Z,0.10
2022-11-18T19:36:50.484Z,0.10
2022-11-18T19:39:18.274Z,0.00
2022-11-18T19:41:45.995Z,0.00
2022-11-18T19:44:13.576Z,0.00
2022-11-18T19:46:41.177Z,0.30
2022-11-18T19:49:09.444Z,0.00
2022-11-18T19:51:37.924Z,0.00
2022-11-18T19:54:06.872Z,0.00
2022-11-18T19:56:34.656Z,0.00
2022-11-18T19:59:02.276Z,0.10
2022-11-18T20:01:30.252Z,0.00
2022-11-18T20:03:58.922Z,0.00
2022-11-18T20:06:27.622Z,-0.10
2022-11-18T20:08:56.872Z,0.00
2022-11-18T20:11:25.843Z,-0.10
2022-11-18T20:13:53.667Z,-0.10
2022-11-18T20:16:22.454Z,-0.10
2022-11-18T20:18:53.031Z,-0.10
2022-11-18T20:21:20.965Z,-0.10
2022-11-18T20:23:49.171Z,-0.10
2022-11-18T20:26:17.754Z,-0.20
2022-11-18T20:28:47.354Z,-0.10
2022-11-18T20:31:16.042Z,0.00
2022-11-18T20:33:48.448Z,-0.30
2022-11-18T20:36:17.330Z,-0.30
2022-11-18T20:38:48.714Z,-0.30
2022-11-18T20:41:16.355Z,-0.20
2022-11-18T20:43:44.532Z,-0.20
2022-11-18T20:46:18.816Z,-0.30
2022-11-18T20:48:47.945Z,-0.30
2022-11-18T20:51:16.691Z,-0.10
2022-11-18T20:53:44.780Z,-0.30
2022-11-18T20:56:12.817Z,-0.30
2022-11-18T20:58:41.014Z,-0.30
2022-11-18T21:01:10.190Z,-0.30
2022-11-18T21:03:39.332Z,-0.30
2022-11-18T21:06:13.466Z,-0.20
2022-11-18T21:08:42.663Z,-0.20
2022-11-18T21:11:11.628Z,-0.20
2022-11-18T21:14:05.429Z,-0.10
2022-11-18T21:16:33.014Z,-0.20
2022-11-18T21:19:01.906Z,-0.20
2022-11-18T21:21:48.836Z,-0.30
2022-11-18T21:24:17.740Z,-0.30
2022-11-18T21:26:46.028Z,-0.40
2022-11-18T21:29:14.278Z,-0.40
2022-11-18T21:31:42.160Z,-0.40
2022-11-18T21:34:11.721Z,-0.30
2022-11-18T21:36:44.331Z,-0.40
2022-11-18T21:39:14.837Z,-0.40
2022-11-18T21:41:42.683Z,-0.40
2022-11-18T21:44:10.809Z,-0.40
2022-11-18T21:46:39.462Z,-0.40
2022-11-18T21:49:07.521Z,-0.40
2022-11-18T21:51:36.850Z,-0.40
2022-11-18T21:54:04.888Z,-0.40
2022-11-18T21:56:32.664Z,-0.40
2022-11-18T21:59:01.914Z,-0.40
2022-11-18T22:01:30.532Z,-0.50
2022-11-18T22:03:59.308Z,-0.40
2022-11-18T22:06:29.616Z,-0.50
2022-11-18T22:08:59.050Z,-0.30
2022-11-18T22:11:26.862Z,-0.40
2022-11-18T22:13:54.458Z,-0.40
2022-11-18T22:16:23.134Z,-0.40
2022-11-18T22:18:56.583Z,-0.40
2022-11-18T22:21:26.106Z,-0.50
2022-11-18T22:23:53.768Z,-0.40
2022-11-18T22:26:22.858Z,-0.40
2022-11-18T22:28:53.671Z,-0.40
2022-11-18T22:31:21.936Z,-0.50
2022-11-18T22:33:49.843Z,-0.40
2022-11-18T22:36:18.344Z,-0.20
2022-11-18T22:38:46.782Z,-0.40
2022-11-18T22:41:35.283Z,-0.40
2022-11-18T22:44:07.375Z,-0.40
2022-11-18T22:46:36.063Z,-0.30
2022-11-18T22:49:03.658Z,-0.50
2022-11-18T22:51:31.298Z,-0.50
2022-11-18T22:56:46.461Z,-0.60
2022-11-18T22:59:15.688Z,-0.70
2022-11-18T23:01:43.448Z,-0.70
2022-11-18T23:04:11.059Z,-0.80
2022-11-18T23:06:38.680Z,-0.80
2022-11-18T23:09:06.256Z,-0.80
2022-11-18T23:11:51.432Z,-0.80
2022-11-18T23:14:20.345Z,-0.90
2022-11-18T23:16:47.923Z,-0.90
2022-11-18T23:19:17.278Z,-1.00
2022-11-18T23:21:45.790Z,-1.00
2022-11-18T23:24:14.107Z,-1.00
2022-11-18T23:26:41.917Z,-1.00
2022-11-18T23:29:10.368Z,-1.00
2022-11-18T23:31:41.092Z,-1.10
2022-11-18T23:34:09.726Z,-0.90
2022-11-18T23:36:37.284Z,-1.10
2022-11-18T23:39:04.825Z,-1.00
2022-11-18T23:41:32.638Z,-1.00
2022-11-18T23:44:00.325Z,-1.00
2022-11-18T23:46:28.234Z,-1.10
2022-11-18T23:48:57.160Z,-0.90
2022-11-18T23:51:25.988Z,-1.10
2022-11-18T23:53:54.466Z,-1.10
2022-11-18T23:56:23.094Z,-1.10
2022-11-18T23:58:51.537Z,-1.20
